Springfield, IL (62712)

3:13 PM CST on February 11, 2016 (GMT -0600)
Gietl Park / Northgate | | Change Station
CLOSE
Current Station
Personal Weather Station
Location: Springfield, IL
Elevation: 591 ft
Nearby Weather Stations

Elev 591 ft 39.83 °N, 89.61 °W | Updated 27 seconds ago

Clear
Clear
28.9 °F
Feels Like 24 °F
N
4.7
Wind Variable Wind from NNE

Today
High -- | Low -- °F
--% Chance of Precip.
Yesterday
High -- | Low -- °F
Precip. -- in
Pressure 30.34 in
Visibility 10.0 miles
Clouds Clear
Windchill 24 °F
Dew Point 10 °F
Humidity 44%
Rainfall 0.00 in
Snow Depth Not available.
6:56 AM 5:29 PM
Waxing Crescent, 14% visible
METAR KSPI 112052Z 00000KT 10SM CLR M03/M14 A3031 RMK AO2 SLP273 T10281144 56014
Pressure 30.34 in
Visibility 10.0 miles
Clouds Clear
Windchill 24 °F
Dew Point 10 °F
Humidity 44%
Rainfall 0.00 in
Snow Depth Not available.
6:56 AM 5:29 PM
Waxing Crescent, 14% visible
METAR KSPI 112052Z 00000KT 10SM CLR M03/M14 A3031 RMK AO2 SLP273 T10281144 56014

10-Day Weather Forecast

Almanac

Astronomy

Feb. 11, 2016 Rise Set
Actual Time
Civil Twilight
Nautical Twilight
Astronomical Twilight
Moon
Length of Visible Light
Length of Day
Tomorrow will be .
, % of the Moon is Illuminated

Today's Extremes

State Highs State Lows

Community

WunderPhotos

Upload Photos

1,892,159 photos uploaded!

WunderBlog® & News

Nearby

Air Quality

  Air Quality AQ Index Pollutant
Not available.

Snow Depth

Station Depth Elevation

Earthquake Activity

City Distance Mag. Time & Date
Minimum magnitude displayed is 2.5.

Coastal Water Temperatures

Place Temperature

Stations

Nearby Weather Stations

Station Location Temp. Windchill Dew Point Humidity Wind Precip. Elev Updated Type
                   

Watches & Warnings

There are currently no watches in effect.